createdAt,value
2018-04-19T00:01:11.722Z,5.23
2018-04-19T00:03:39.180Z,5.17
2018-04-19T00:06:07.436Z,5.87
2018-04-19T00:08:34.925Z,6.20
2018-04-19T00:11:03.169Z,5.63
2018-04-19T00:13:30.681Z,5.97
2018-04-19T00:15:58.126Z,5.60
2018-04-19T00:18:25.629Z,6.00
2018-04-19T00:20:53.086Z,6.90
2018-04-19T00:23:20.560Z,6.30
2018-04-19T00:25:48.028Z,6.20
2018-04-19T00:28:15.505Z,7.63
2018-04-19T00:30:43.745Z,7.33
2018-04-19T00:33:11.206Z,8.13
2018-04-19T00:35:38.688Z,7.40
2018-04-19T00:38:06.191Z,6.97
2018-04-19T00:40:33.678Z,7.70
2018-04-19T00:43:01.145Z,7.10
2018-04-19T00:45:28.613Z,7.23
2018-04-19T00:47:56.072Z,8.03
2018-04-19T00:50:23.552Z,7.93
2018-04-19T00:53:02.851Z,8.17
2018-04-19T00:55:30.320Z,7.57
2018-04-19T00:57:57.783Z,7.70
2018-04-19T01:00:25.248Z,7.60
2018-04-19T01:02:52.741Z,8.87
2018-04-19T01:05:20.203Z,7.90
2018-04-19T01:07:47.696Z,7.67
2018-04-19T01:10:15.183Z,6.97
2018-04-19T01:12:42.628Z,7.10
2018-04-19T01:15:10.103Z,6.63
2018-04-19T01:17:37.586Z,6.27
2018-04-19T01:20:05.073Z,7.63
2018-04-19T01:22:32.531Z,7.50
2018-04-19T01:24:59.995Z,7.00
2018-04-19T01:27:27.471Z,7.73
2018-04-19T01:29:54.939Z,7.20
2018-04-19T01:32:22.445Z,6.87
2018-04-19T01:34:50.674Z,6.90
2018-04-19T01:37:18.129Z,6.90
2018-04-19T01:39:45.638Z,6.23
2018-04-19T01:42:13.112Z,7.50
2018-04-19T01:44:40.596Z,6.00
2018-04-19T01:47:08.054Z,5.97
2018-04-19T01:49:36.278Z,7.60
2018-04-19T01:52:03.764Z,5.73
2018-04-19T01:54:31.232Z,6.63
2018-04-19T01:56:58.713Z,6.93
2018-04-19T01:59:26.212Z,5.80
2018-04-19T02:01:53.675Z,5.90
2018-04-19T02:04:21.155Z,7.10
2018-04-19T02:06:48.600Z,5.70
2018-04-19T02:09:16.088Z,5.50
2018-04-19T02:11:43.565Z,6.17
2018-04-19T02:14:11.042Z,6.67
2018-04-19T02:16:38.516Z,5.43
2018-04-19T02:19:05.984Z,5.57
2018-04-19T02:21:33.455Z,5.40
2018-04-19T02:24:01.749Z,5.93
2018-04-19T02:26:29.988Z,5.80
2018-04-19T02:28:57.476Z,5.73
2018-04-19T02:31:24.951Z,5.20
2018-04-19T02:33:52.432Z,5.80
2018-04-19T02:36:19.939Z,5.30
2018-04-19T02:38:48.280Z,5.77
2018-04-19T02:41:15.796Z,5.50
2018-04-19T02:43:44.022Z,6.10
2018-04-19T02:46:11.516Z,6.37
2018-04-19T02:48:39.003Z,5.77
2018-04-19T02:51:06.457Z,6.27
2018-04-19T02:53:33.946Z,6.23
2018-04-19T02:56:01.426Z,6.40
2018-04-19T02:58:28.913Z,6.60
2018-04-19T03:00:56.386Z,5.90
2018-04-19T03:03:23.864Z,6.50
2018-04-19T03:05:51.354Z,7.00
2018-04-19T03:08:18.844Z,6.00
2018-04-19T03:10:46.324Z,6.90
2018-04-19T03:13:13.782Z,6.30
2018-04-19T03:15:41.250Z,6.63
2018-04-19T03:18:08.745Z,6.60
2018-04-19T03:20:36.214Z,6.70
2018-04-19T03:23:03.698Z,6.27
2018-04-19T03:25:31.176Z,6.07
2018-04-19T03:27:59.425Z,6.73
2018-04-19T03:30:26.910Z,6.47
2018-04-19T03:32:54.396Z,6.07
2018-04-19T03:35:21.857Z,5.73
2018-04-19T03:37:49.338Z,6.60
2018-04-19T03:40:17.590Z,7.03
2018-04-19T03:42:45.068Z,6.00
2018-04-19T03:45:12.529Z,6.43
2018-04-19T03:47:40.793Z,7.00
2018-04-19T03:50:08.280Z,6.60
2018-04-19T03:52:35.738Z,6.70
2018-04-19T03:55:03.222Z,6.17
2018-04-19T03:57:30.680Z,5.90
2018-04-19T03:59:58.171Z,6.43
2018-04-19T04:02:25.632Z,5.80
2018-04-19T04:04:53.091Z,6.10
2018-04-19T04:07:20.571Z,6.07
2018-04-19T04:09:48.023Z,6.40
2018-04-19T04:12:15.497Z,6.50
2018-04-19T04:14:42.976Z,5.77
2018-04-19T04:17:22.109Z,6.33
2018-04-19T04:20:02.349Z,6.00
2018-04-19T04:22:41.683Z,6.50
2018-04-19T04:25:09.925Z,5.50
2018-04-19T04:27:37.408Z,6.10
2018-04-19T04:30:04.889Z,6.20
2018-04-19T04:32:32.360Z,7.23
2018-04-19T04:35:00.676Z,7.07
2018-04-19T04:37:28.934Z,6.63
2018-04-19T04:39:56.411Z,7.27
2018-04-19T04:42:23.900Z,6.33
2018-04-19T04:44:51.377Z,6.10
2018-04-19T04:47:18.847Z,6.50
2018-04-19T04:49:46.430Z,5.83
2018-04-19T04:52:13.910Z,6.00
2018-04-19T04:54:41.413Z,5.43
2018-04-19T04:57:08.897Z,6.20
2018-04-19T04:59:36.375Z,6.43
2018-04-19T05:02:04.652Z,7.17
2018-04-19T05:04:32.903Z,5.33
2018-04-19T05:07:00.381Z,5.37
2018-04-19T05:09:28.621Z,6.13
2018-04-19T05:11:56.098Z,5.63
2018-04-19T05:14:23.577Z,5.97
2018-04-19T05:16:51.815Z,6.00
2018-04-19T05:19:19.298Z,6.80
2018-04-19T05:21:46.798Z,6.33
2018-04-19T05:24:14.285Z,6.90
2018-04-19T05:26:41.800Z,5.87
2018-04-19T05:29:09.292Z,6.87
2018-04-19T05:31:36.802Z,6.00
2018-04-19T05:34:04.259Z,5.80
2018-04-19T05:36:32.498Z,6.70
2018-04-19T05:38:59.981Z,6.93
2018-04-19T05:41:27.462Z,8.10
2018-04-19T05:43:54.950Z,5.87
2018-04-19T05:46:22.420Z,7.07
2018-04-19T05:48:49.927Z,6.60
2018-04-19T05:51:18.162Z,6.10
2018-04-19T05:53:45.640Z,5.50
2018-04-19T05:56:13.130Z,6.20
2018-04-19T05:58:40.604Z,5.97
2018-04-19T06:01:08.101Z,5.97
2018-04-19T06:03:35.648Z,6.33
2018-04-19T06:06:03.122Z,6.00
2018-04-19T06:08:34.717Z,6.10
2018-04-19T06:11:02.221Z,6.20
2018-04-19T06:13:29.721Z,5.93
2018-04-19T06:15:57.205Z,5.87
2018-04-19T06:18:24.670Z,6.80
2018-04-19T06:20:52.166Z,7.20
2018-04-19T06:23:19.637Z,7.40
2018-04-19T06:25:47.137Z,6.30
2018-04-19T06:28:14.676Z,6.67
2018-04-19T06:30:42.168Z,6.83
2018-04-19T06:33:10.431Z,5.60
2018-04-19T06:35:37.901Z,7.03
2018-04-19T06:38:05.394Z,7.07
2018-04-19T06:40:32.884Z,6.90
2018-04-19T06:43:01.140Z,7.80
2018-04-19T06:45:28.646Z,7.00
2018-04-19T06:47:56.126Z,6.80
2018-04-19T06:50:23.636Z,6.63
2018-04-19T06:52:51.875Z,6.87
2018-04-19T06:55:19.368Z,7.27
2018-04-19T06:57:46.878Z,7.70
2018-04-19T07:00:14.349Z,7.30
2018-04-19T07:02:41.820Z,7.57
2018-04-19T07:05:09.301Z,6.40
2018-04-19T07:07:36.781Z,6.90
2018-04-19T07:10:04.256Z,7.20
2018-04-19T07:12:31.720Z,7.63
2018-04-19T07:14:59.255Z,7.77
2018-04-19T07:17:26.723Z,7.07
2018-04-19T07:19:54.252Z,7.17
2018-04-19T07:22:21.735Z,7.10
2018-04-19T07:24:49.203Z,7.70
2018-04-19T07:27:16.802Z,7.00
2018-04-19T07:29:45.041Z,7.73
2018-04-19T07:32:12.563Z,7.83
2018-04-19T07:34:40.044Z,6.73
2018-04-19T07:37:07.544Z,7.60
2018-04-19T07:39:35.040Z,7.50
2018-04-19T07:42:02.529Z,6.83
2018-04-19T07:44:30.028Z,7.30
2018-04-19T07:46:57.514Z,8.40
2018-04-19T07:49:24.988Z,8.00
2018-04-19T07:51:52.484Z,8.00
2018-04-19T07:54:19.963Z,8.60
2018-04-19T07:56:48.259Z,7.90
2018-04-19T07:59:15.733Z,8.53
2018-04-19T08:01:43.207Z,8.20
2018-04-19T08:04:10.720Z,9.57
2018-04-19T08:06:38.962Z,9.20
2018-04-19T08:09:07.153Z,7.60
2018-04-19T08:11:34.637Z,8.47
2018-04-19T08:14:02.138Z,8.27
2018-04-19T08:16:29.647Z,9.27
2018-04-19T08:18:57.883Z,8.43
2018-04-19T08:21:25.382Z,9.57
2018-04-19T08:23:53.611Z,8.60
2018-04-19T08:26:21.108Z,8.23
2018-04-19T08:28:49.363Z,8.63
2018-04-19T08:31:16.831Z,7.83
2018-04-19T08:33:44.334Z,8.50
2018-04-19T08:36:11.795Z,8.13
2018-04-19T08:38:39.299Z,8.00
2018-04-19T08:41:06.782Z,8.63
2018-04-19T08:43:34.259Z,8.63
2018-04-19T08:46:01.749Z,8.80
2018-04-19T08:48:29.253Z,9.13
2018-04-19T08:50:57.482Z,7.20
2018-04-19T08:53:24.975Z,7.60
2018-04-19T08:55:52.475Z,7.90
2018-04-19T08:58:20.045Z,8.33
2018-04-19T09:00:47.506Z,7.20
2018-04-19T09:03:14.998Z,7.83
2018-04-19T09:05:42.493Z,8.20
2018-04-19T09:08:10.751Z,8.17
2018-04-19T09:10:38.255Z,8.17
2018-04-19T09:13:05.729Z,8.20
2018-04-19T09:15:33.218Z,8.37
2018-04-19T09:18:00.972Z,7.63
2018-04-19T09:20:29.208Z,9.50
2018-04-19T09:22:56.734Z,8.87
2018-04-19T09:25:24.211Z,9.70
2018-04-19T09:27:51.683Z,9.13
2018-04-19T09:30:19.195Z,9.00
2018-04-19T09:32:46.673Z,8.73
2018-04-19T09:35:14.149Z,8.80
2018-04-19T09:37:41.630Z,8.80
2018-04-19T09:40:09.095Z,8.90
2018-04-19T09:42:36.588Z,9.47
2018-04-19T09:45:04.063Z,9.10
2018-04-19T09:47:31.552Z,9.23
2018-04-19T09:49:59.027Z,9.57
2018-04-19T09:52:26.510Z,8.70
2018-04-19T09:54:54.768Z,7.70
2018-04-19T09:57:22.264Z,8.20
2018-04-19T09:59:49.747Z,7.20
2018-04-19T10:02:17.272Z,7.50
2018-04-19T10:04:46.627Z,8.23
2018-04-19T10:07:14.129Z,9.07
2018-04-19T10:09:41.610Z,7.20
2018-04-19T10:12:09.106Z,8.10
2018-04-19T10:14:36.626Z,7.60
2018-04-19T10:17:04.103Z,7.80
2018-04-19T10:19:31.623Z,7.10
2018-04-19T10:21:59.131Z,8.03
2018-04-19T10:24:26.642Z,7.03
2018-04-19T10:26:54.173Z,6.57
2018-04-19T10:29:22.413Z,6.00
2018-04-19T10:31:49.912Z,6.60
2018-04-19T10:34:18.155Z,6.60
2018-04-19T10:36:45.619Z,6.60
2018-04-19T10:39:13.099Z,6.43
2018-04-19T10:41:41.481Z,6.97
2018-04-19T10:44:08.989Z,5.70
2018-04-19T10:46:36.469Z,7.77
2018-04-19T10:49:03.973Z,7.63
2018-04-19T10:51:31.479Z,7.03
2018-04-19T10:53:58.947Z,7.13
2018-04-19T10:56:26.488Z,7.80
2018-04-19T10:58:53.991Z,9.00
2018-04-19T11:01:22.300Z,7.27
2018-04-19T11:03:49.778Z,7.57
2018-04-19T11:06:17.303Z,8.20
2018-04-19T11:08:44.825Z,8.13
2018-04-19T11:11:13.400Z,7.27
2018-04-19T11:13:41.658Z,7.03
2018-04-19T11:16:09.160Z,8.70
2018-04-19T11:18:36.647Z,8.53
2018-04-19T11:21:04.139Z,7.53
2018-04-19T11:23:31.607Z,7.90
2018-04-19T11:26:01.535Z,7.83
2018-04-19T11:28:29.785Z,7.60
2018-04-19T11:30:57.323Z,7.77
2018-04-19T11:33:24.802Z,8.43
2018-04-19T11:35:52.298Z,7.30
2018-04-19T11:38:19.784Z,9.17
2018-04-19T11:40:47.269Z,9.07
2018-04-19T11:43:14.785Z,8.93
2018-04-19T11:45:43.046Z,7.73
2018-04-19T11:48:10.523Z,7.50
2018-04-19T11:50:38.013Z,7.73
2018-04-19T11:53:05.481Z,7.70
2018-04-19T11:55:32.969Z,6.53
2018-04-19T11:58:00.465Z,7.43
2018-04-19T12:00:27.950Z,5.83
2018-04-19T12:02:55.430Z,7.50
2018-04-19T12:05:23.693Z,7.40
2018-04-19T12:07:51.163Z,6.17
2018-04-19T12:10:18.657Z,6.47
2018-04-19T12:12:46.132Z,8.37
2018-04-19T12:15:13.615Z,9.00
2018-04-19T12:17:41.115Z,9.67
2018-04-19T12:20:09.351Z,9.00
2018-04-19T12:22:36.872Z,10.37
2018-04-19T12:25:04.565Z,7.10
2018-04-19T12:27:32.071Z,8.70
2018-04-19T12:29:59.559Z,9.10
2018-04-19T12:32:27.038Z,9.47
2018-04-19T12:34:55.745Z,8.13
2018-04-19T12:37:23.562Z,7.40
2018-04-19T12:39:51.063Z,8.00
2018-04-19T12:42:18.593Z,10.37
2018-04-19T12:44:46.097Z,7.83
2018-04-19T12:47:13.603Z,8.90
2018-04-19T12:49:41.100Z,8.70
2018-04-19T12:52:08.584Z,7.67
2018-04-19T12:54:36.307Z,7.03
2018-04-19T12:57:04.866Z,6.10
2018-04-19T12:59:34.039Z,7.00
2018-04-19T13:02:01.527Z,6.47
2018-04-19T13:04:29.019Z,6.40
2018-04-19T13:06:56.526Z,7.10
2018-04-19T13:09:24.022Z,6.70
2018-04-19T13:11:51.529Z,6.80
2018-04-19T13:14:19.028Z,6.63
2018-04-19T13:16:46.503Z,6.23
2018-04-19T13:19:14.009Z,7.57
2018-04-19T13:21:41.487Z,6.10
2018-04-19T13:24:08.973Z,6.50
2018-04-19T13:26:36.451Z,5.93
2018-04-19T13:29:03.908Z,5.93
2018-04-19T13:31:32.210Z,5.30
2018-04-19T13:33:59.727Z,7.20
2018-04-19T13:36:27.233Z,7.70
2018-04-19T13:38:54.729Z,7.83
2018-04-19T13:41:22.195Z,8.10
2018-04-19T13:43:49.701Z,7.67
2018-04-19T13:46:17.198Z,7.17
2018-04-19T13:48:44.737Z,6.23
2018-04-19T13:51:12.163Z,6.90
2018-04-19T13:53:39.647Z,6.77
2018-04-19T13:56:07.150Z,6.50
2018-04-19T13:58:34.646Z,6.30
2018-04-19T14:01:02.156Z,5.80
2018-04-19T14:03:31.166Z,7.00
2018-04-19T14:05:59.450Z,6.23
2018-04-19T14:08:27.715Z,6.47
2018-04-19T14:10:55.979Z,6.93
2018-04-19T14:13:23.458Z,6.63
2018-04-19T14:15:51.711Z,6.43
2018-04-19T14:18:19.192Z,5.47
2018-04-19T14:20:47.555Z,6.00
2018-04-19T14:23:15.671Z,6.70
2018-04-19T14:25:43.230Z,5.97
2018-04-19T14:28:10.724Z,6.67
2018-04-19T14:30:38.218Z,6.07
2018-04-19T14:33:05.740Z,5.90
2018-04-19T14:35:33.328Z,5.77
2018-04-19T14:38:01.616Z,5.30
2018-04-19T14:40:29.877Z,5.30
2018-04-19T14:42:58.357Z,4.90
2018-04-19T14:45:25.857Z,5.00
2018-04-19T14:47:53.318Z,4.63
2018-04-19T14:50:20.834Z,4.63
2018-04-19T14:52:49.140Z,4.73
2018-04-19T14:55:16.729Z,4.60
2018-04-19T14:57:44.201Z,4.73
2018-04-19T15:00:11.681Z,4.60
2018-04-19T15:02:40.080Z,5.03
2018-04-19T15:05:08.456Z,4.67
2018-04-19T15:07:35.914Z,4.97
2018-04-19T15:10:03.476Z,5.00
2018-04-19T15:12:31.727Z,5.00
2018-04-19T15:14:59.238Z,4.53
2018-04-19T15:17:26.714Z,4.73
2018-04-19T15:19:54.279Z,5.03
2018-04-19T15:22:21.845Z,4.80
2018-04-19T15:24:49.350Z,4.73
2018-04-19T15:27:16.829Z,5.47
2018-04-19T15:29:44.453Z,5.27
2018-04-19T15:32:11.917Z,5.20
2018-04-19T15:34:40.147Z,4.80
2018-04-19T15:37:07.612Z,5.77
2018-04-19T15:39:35.083Z,5.37
2018-04-19T15:42:02.562Z,5.07
2018-04-19T15:44:30.070Z,5.60
2018-04-19T15:46:57.569Z,4.90
2018-04-19T15:49:25.829Z,5.60
2018-04-19T15:51:53.339Z,5.17
2018-04-19T15:54:20.836Z,5.50
2018-04-19T15:56:48.320Z,6.20
2018-04-19T15:59:16.592Z,4.93
2018-04-19T16:01:44.089Z,5.07
2018-04-19T16:04:11.588Z,6.20
2018-04-19T16:06:39.087Z,6.00
2018-04-19T16:09:06.542Z,6.33
2018-04-19T16:11:34.062Z,5.10
2018-04-19T16:14:01.555Z,5.20
2018-04-19T16:16:29.852Z,5.20
2018-04-19T16:18:58.113Z,5.30
2018-04-19T16:21:25.577Z,5.30
2018-04-19T16:23:53.083Z,5.27
2018-04-19T16:26:20.556Z,6.20
2018-04-19T16:28:48.624Z,5.87
2018-04-19T16:31:15.518Z,5.40
2018-04-19T16:33:42.993Z,5.17
2018-04-19T16:36:10.492Z,5.43
2018-04-19T16:38:38.759Z,5.80
2018-04-19T16:41:06.282Z,5.73
2018-04-19T16:43:33.734Z,5.57
2018-04-19T16:46:01.245Z,4.97
2018-04-19T16:48:28.761Z,4.80
2018-04-19T16:50:56.239Z,4.37
2018-04-19T16:53:23.732Z,4.60
2018-04-19T16:55:52.120Z,5.73
2018-04-19T16:58:23.004Z,5.20
2018-04-19T17:00:50.478Z,4.57
2018-04-19T17:03:17.961Z,5.73
2018-04-19T17:05:45.458Z,5.17
2018-04-19T17:08:12.926Z,5.40
2018-04-19T17:10:40.404Z,4.80
2018-04-19T17:13:08.653Z,5.17
2018-04-19T17:15:36.122Z,5.20
2018-04-19T17:18:03.644Z,5.30
2018-04-19T17:20:31.123Z,4.47
2018-04-19T17:22:58.597Z,4.70
2018-04-19T17:25:26.103Z,4.70
2018-04-19T17:27:53.600Z,4.93
2018-04-19T17:30:21.078Z,4.83
2018-04-19T17:32:48.546Z,4.90
2018-04-19T17:35:16.026Z,4.83
2018-04-19T17:37:44.294Z,4.90
2018-04-19T17:40:12.560Z,5.00
2018-04-19T17:42:40.854Z,5.00
2018-04-19T17:45:08.334Z,4.70
2018-04-19T17:47:35.843Z,4.90
2018-04-19T17:50:03.609Z,5.37
2018-04-19T17:52:31.095Z,5.03
2018-04-19T17:54:59.350Z,4.77
2018-04-19T17:57:27.607Z,4.80
2018-04-19T17:59:55.085Z,4.80
2018-04-19T18:02:23.346Z,4.80
2018-04-19T18:04:50.810Z,5.13
2018-04-19T18:07:18.282Z,4.40
2018-04-19T18:09:46.521Z,4.73
2018-04-19T18:12:13.983Z,5.03
2018-04-19T18:14:41.629Z,4.77
2018-04-19T18:17:09.107Z,5.10
2018-04-19T18:19:36.616Z,4.90
2018-04-19T18:22:04.094Z,4.20
2018-04-19T18:24:31.585Z,4.30
2018-04-19T18:26:59.084Z,4.50
2018-04-19T18:29:26.567Z,4.70
2018-04-19T18:31:54.064Z,5.10
2018-04-19T18:34:21.557Z,4.60
2018-04-19T18:36:49.084Z,5.53
2018-04-19T18:39:16.641Z,4.60
2018-04-19T18:41:44.915Z,4.47
2018-04-19T18:44:12.665Z,4.80
2018-04-19T18:46:40.165Z,4.07
2018-04-19T18:49:08.391Z,5.00
2018-04-19T18:51:36.488Z,5.33
2018-04-19T18:54:03.984Z,4.70
2018-04-19T18:56:31.527Z,4.60
2018-04-19T18:58:58.997Z,4.50
2018-04-19T19:01:26.467Z,5.40
2018-04-19T19:03:53.968Z,4.93
2018-04-19T19:06:21.442Z,4.33
2018-04-19T19:08:49.719Z,4.30
2018-04-19T19:11:17.200Z,4.10
2018-04-19T19:13:44.699Z,4.10
2018-04-19T19:16:12.213Z,4.17
2018-04-19T19:18:51.390Z,5.03
2018-04-19T19:21:18.888Z,4.37
2018-04-19T19:23:46.409Z,4.30
2018-04-19T19:26:13.911Z,4.90
2018-04-19T19:28:41.406Z,4.57
2018-04-19T19:31:08.881Z,5.40
2018-04-19T19:33:36.397Z,5.77
2018-04-19T19:36:04.649Z,5.03
2018-04-19T19:38:32.124Z,6.30
2018-04-19T19:40:59.601Z,5.77
2018-04-19T19:43:27.081Z,5.70
2018-04-19T19:45:54.580Z,6.00
2018-04-19T19:48:22.080Z,7.10
2018-04-19T19:50:49.595Z,5.87
2018-04-19T19:53:17.096Z,4.90
2018-04-19T19:55:44.573Z,5.17
2018-04-19T19:58:12.067Z,4.90
2018-04-19T20:00:40.316Z,4.97
2018-04-19T20:03:07.825Z,5.10
2018-04-19T20:05:35.294Z,4.90
2018-04-19T20:08:02.762Z,6.40
2018-04-19T20:10:30.263Z,5.13
2018-04-19T20:12:57.745Z,6.00
2018-04-19T20:15:25.238Z,4.73
2018-04-19T20:17:52.722Z,4.50
2018-04-19T20:20:20.199Z,4.77
2018-04-19T20:22:48.486Z,4.50
2018-04-19T20:25:16.732Z,5.40
2018-04-19T20:27:44.226Z,5.67
2018-04-19T20:30:12.708Z,4.90
2018-04-19T20:32:40.969Z,4.40
2018-04-19T20:35:09.249Z,5.27
2018-04-19T20:37:37.479Z,4.10
2018-04-19T20:40:04.966Z,3.70
2018-04-19T20:42:32.437Z,4.40
2018-04-19T20:45:00.717Z,4.10
2018-04-19T20:47:28.962Z,4.53
2018-04-19T20:49:56.450Z,3.97
2018-04-19T20:52:24.714Z,4.20
2018-04-19T20:54:52.192Z,4.67
2018-04-19T20:57:20.434Z,4.10
2018-04-19T20:59:47.923Z,4.10
2018-04-19T21:02:15.398Z,3.50
2018-04-19T21:04:42.872Z,3.90
2018-04-19T21:07:10.353Z,3.80
2018-04-19T21:09:37.822Z,3.90
2018-04-19T21:12:05.453Z,3.90
2018-04-19T21:14:32.942Z,4.03
2018-04-19T21:17:00.429Z,3.93
2018-04-19T21:19:27.920Z,4.13
2018-04-19T21:21:55.390Z,4.07
2018-04-19T21:24:23.653Z,3.90
2018-04-19T21:26:51.094Z,4.20
2018-04-19T21:29:18.671Z,4.40
2018-04-19T21:31:46.139Z,4.17
2018-04-19T21:34:14.445Z,4.20
2018-04-19T21:36:41.960Z,3.90
2018-04-19T21:39:09.442Z,3.90
2018-04-19T21:41:36.967Z,4.70
2018-04-19T21:44:04.445Z,4.80
2018-04-19T21:46:31.931Z,4.23
2018-04-19T21:48:59.896Z,3.60
2018-04-19T21:51:27.373Z,4.23
2018-04-19T21:53:54.866Z,4.60
2018-04-19T21:56:22.341Z,5.00
2018-04-19T21:58:49.811Z,4.87
2018-04-19T22:01:17.305Z,4.23
2018-04-19T22:03:45.554Z,4.27
2018-04-19T22:06:13.031Z,4.13
2018-04-19T22:08:41.267Z,4.60
2018-04-19T22:11:08.734Z,4.70
2018-04-19T22:13:36.240Z,4.87
2018-04-19T22:16:03.727Z,6.37
2018-04-19T22:18:31.225Z,4.90
2018-04-19T22:20:58.695Z,4.67
2018-04-19T22:23:26.160Z,4.90
2018-04-19T22:25:54.424Z,4.83
2018-04-19T22:28:21.889Z,4.70
2018-04-19T22:30:49.380Z,4.60
2018-04-19T22:33:16.857Z,4.30
2018-04-19T22:35:44.348Z,4.40
2018-04-19T22:38:11.875Z,3.80
2018-04-19T22:40:39.337Z,5.00
2018-04-19T22:43:06.847Z,4.90
2018-04-19T22:45:34.318Z,4.20
2018-04-19T22:48:01.801Z,4.80
2018-04-19T22:50:29.301Z,4.70
2018-04-19T22:52:56.776Z,4.63
2018-04-19T22:55:25.037Z,4.70
2018-04-19T22:57:52.588Z,5.20
2018-04-19T23:00:20.055Z,4.47
2018-04-19T23:02:47.546Z,3.90
2018-04-19T23:05:15.017Z,4.90
2018-04-19T23:07:42.510Z,4.43
2018-04-19T23:10:09.972Z,4.90
2018-04-19T23:12:37.459Z,4.40
2018-04-19T23:15:05.694Z,5.00
2018-04-19T23:17:33.226Z,4.23
2018-04-19T23:20:02.219Z,5.37
2018-04-19T23:22:34.401Z,4.63
2018-04-19T23:25:02.709Z,3.90
2018-04-19T23:27:30.173Z,4.67
2018-04-19T23:29:58.389Z,4.40
2018-04-19T23:32:25.902Z,4.20
2018-04-19T23:34:53.392Z,3.63
2018-04-19T23:37:20.882Z,4.70
2018-04-19T23:39:48.350Z,4.20
2018-04-19T23:42:15.837Z,4.10
2018-04-19T23:44:44.085Z,4.40
2018-04-19T23:47:11.573Z,4.00
2018-04-19T23:49:39.841Z,4.27
2018-04-19T23:52:07.325Z,3.90
2018-04-19T23:54:34.811Z,4.20
2018-04-19T23:57:02.311Z,4.63
2018-04-19T23:59:29.776Z,5.23
